Time;durP1;ratioP1;P1;durP2;ratioP2;P2;SDS_P1;SDS_P2;PMS_P1;PMS_P2;Temp;Humidity;BMP_temperature;BMP_pressure;BME280_temperature;BME280_humidity;BME280_pressure;Samples;Min_cycle;Max_cycle;Signal;HPM_P1;HPM_P2
2021/04/20 00:01:30;;;;;;;79.85;50.83;;;;;;;4.75;73.26;100247.67;2122111;83;33932;-64
2021/04/20 00:04:32;;;;;;;86.28;53.15;;;;;;;4.73;73.17;100252.14;2119398;83;30102;-61
2021/04/20 00:07:34;;;;;;;80.85;48.68;;;;;;;4.67;73.23;100255.37;2120418;82;27712;-62
2021/04/20 00:10:36;;;;;;;79.80;47.70;;;;;;;4.65;73.20;100256.33;2119020;83;28832;-62
2021/04/20 00:13:38;;;;;;;80.70;47.53;;;;;;;4.57;73.21;100245.91;2118295;84;30582;-62
2021/04/20 00:16:41;;;;;;;76.97;48.48;;;;;;;4.55;73.11;100251.70;2118812;84;33119;-61
2021/04/20 00:19:43;;;;;;;72.55;46.02;;;;;;;4.53;73.24;100257.51;2121177;82;30114;-62
2021/04/20 00:22:45;;;;;;;76.17;49.42;;;;;;;4.51;73.27;100255.34;2122619;83;28061;-61
2021/04/20 00:25:48;;;;;;;80.35;49.63;;;;;;;4.48;73.31;100255.41;2122381;83;31165;-63
2021/04/20 00:28:51;;;;;;;80.50;47.98;;;;;;;4.45;73.39;100261.68;2122604;82;31146;-62
2021/04/20 00:31:53;;;;;;;79.00;46.58;;;;;;;4.43;73.52;100262.64;2122509;83;33545;-64
2021/04/20 00:34:55;;;;;;;72.05;44.75;;;;;;;4.38;73.55;100264.94;2122266;83;30578;-62
2021/04/20 00:37:57;;;;;;;67.95;44.10;;;;;;;4.34;73.87;100267.72;2120887;82;27702;-62
2021/04/20 00:41:05;;;;;;;70.00;41.53;;;;;;;4.30;73.99;100269.58;2122450;83;29336;-62
2021/04/20 00:44:07;;;;;;;69.95;42.55;;;;;;;4.28;73.90;100267.85;2137247;82;30867;-62
2021/04/20 00:47:10;;;;;;;71.17;38.75;;;;;;;4.26;73.82;100268.76;2135655;82;33115;-63
2021/04/20 00:50:15;;;;;;;68.20;40.65;;;;;;;4.26;73.76;100267.90;2119320;83;29580;-62
2021/04/20 00:53:17;;;;;;;64.25;39.78;;;;;;;4.26;73.78;100262.59;2121416;83;27687;-62
2021/04/20 00:56:20;;;;;;;62.85;37.70;;;;;;;4.21;73.91;100257.41;2136595;82;28832;-64
2021/04/20 00:59:22;;;;;;;65.70;37.80;;;;;;;4.20;74.03;100253.45;2130274;82;31168;-63
2021/04/20 01:02:24;;;;;;;59.53;37.58;;;;;;;4.19;74.10;100253.03;2119969;83;33553;-62
2021/04/20 01:05:32;;;;;;;54.83;36.33;;;;;;;4.18;74.24;100258.80;2119740;82;29167;-62
2021/04/20 01:08:35;;;;;;;53.10;35.80;;;;;;;4.14;74.16;100261.11;2125730;82;27638;-63
2021/04/20 01:11:40;;;;;;;50.63;33.02;;;;;;;4.07;74.20;100252.42;2118689;83;28899;-62
2021/04/20 01:14:42;;;;;;;53.52;33.05;;;;;;;4.03;74.23;100252.55;2120369;82;32021;-62
2021/04/20 01:17:44;;;;;;;51.63;33.45;;;;;;;4.02;74.17;100254.77;2119100;83;33205;-62
2021/04/20 01:20:51;;;;;;;54.15;34.63;;;;;;;4.01;74.19;100247.73;2122050;83;29205;-62
2021/04/20 01:24:14;;;;;;;53.28;34.67;;;;;;;4.01;74.36;100246.41;2125110;82;27693;-63
2021/04/20 01:27:17;;;;;;;54.27;35.75;;;;;;;3.99;74.25;100244.23;2123546;82;28881;-62
2021/04/20 01:30:20;;;;;;;50.45;32.67;;;;;;;3.97;74.40;100238.09;2122002;83;31158;-62
2021/04/20 01:33:22;;;;;;;53.45;34.20;;;;;;;3.95;74.33;100239.47;2096572;83;33219;-64
2021/04/20 01:36:27;;;;;;;55.20;36.45;;;;;;;3.94;74.26;100238.58;2121934;82;29106;-62
2021/04/20 01:39:29;;;;;;;51.93;34.07;;;;;;;3.89;74.39;100241.78;2079318;85;27889;-61
2021/04/20 01:42:32;;;;;;;51.92;31.50;;;;;;;3.86;74.32;100237.91;2084827;85;28829;-63
2021/04/20 01:45:34;;;;;;;47.08;30.82;;;;;;;3.84;74.28;100239.72;2044279;86;31159;-63
2021/04/20 01:48:37;;;;;;;49.60;32.90;;;;;;;3.84;74.29;100239.72;2122028;82;34231;-61
2021/04/20 01:51:40;;;;;;;48.48;32.75;;;;;;;3.84;74.29;100242.36;2112861;83;29695;-63
2021/04/20 01:54:42;;;;;;;53.13;35.17;;;;;;;3.79;74.19;100249.53;2121412;83;27840;-62
2021/04/20 01:57:48;;;;;;;53.98;35.68;;;;;;;3.77;74.43;100253.56;2121210;83;28813;-63
2021/04/20 02:00:52;;;;;;;56.30;34.90;;;;;;;3.76;74.82;100247.84;2140973;82;31215;-63
2021/04/20 02:03:55;;;;;;;50.52;34.40;;;;;;;3.79;74.71;100248.21;2132569;82;33977;-65
2021/04/20 02:06:58;;;;;;;66.00;40.70;;;;;;;3.80;74.67;100249.52;2121489;83;29097;-63
2021/04/20 02:10:04;;;;;;;60.70;35.55;;;;;;;3.76;74.75;100245.62;2119856;83;27760;-62
2021/04/20 02:13:07;;;;;;;62.85;36.93;;;;;;;3.74;74.72;100244.78;2122583;83;29719;-63
2021/04/20 02:16:10;;;;;;;61.63;36.88;;;;;;;3.71;74.72;100248.85;2127076;82;31584;-62
2021/04/20 02:19:13;;;;;;;70.50;39.92;;;;;;;3.69;74.91;100240.92;2124585;82;33124;-62
2021/04/20 02:22:15;;;;;;;75.47;42.30;;;;;;;3.74;74.96;100244.78;2122844;82;29166;-61
2021/04/20 02:25:19;;;;;;;83.97;43.80;;;;;;;3.76;74.85;100250.48;2122567;83;27688;-62
2021/04/20 02:28:22;;;;;;;73.65;42.83;;;;;;;3.75;74.81;100244.77;2122385;83;28841;-61
2021/04/20 02:31:25;;;;;;;70.52;41.68;;;;;;;3.76;74.74;100253.57;2122255;82;31713;-62
2021/04/20 02:34:28;;;;;;;65.97;39.08;;;;;;;3.74;74.58;100245.67;2121538;83;34413;-63
2021/04/20 02:37:31;;;;;;;61.55;39.03;;;;;;;3.69;74.45;100236.95;2130720;82;29215;-64
2021/04/20 02:40:35;;;;;;;60.25;37.30;;;;;;;3.65;74.43;100239.23;2120016;82;27841;-63
2021/04/20 02:43:38;;;;;;;55.20;34.98;;;;;;;3.61;74.62;100241.09;2119038;84;28888;-62
2021/04/20 02:46:43;;;;;;;54.00;32.17;;;;;;;3.59;74.67;100238.92;2122059;83;31150;-62
2021/04/20 02:49:45;;;;;;;49.85;30.65;;;;;;;3.49;74.88;100213.55;2120903;82;33914;-63
2021/04/20 02:52:50;;;;;;;50.20;31.07;;;;;;;3.49;74.88;100213.55;2119089;84;30328;-65
2021/04/20 02:55:52;;;;;;;58.27;32.97;;;;;;;3.63;75.03;100232.66;2119764;83;27580;-63
2021/04/20 02:58:55;;;;;;;68.40;31.95;;;;;;;3.66;75.16;100227.73;2121498;83;28830;-63
2021/04/20 03:01:59;;;;;;;69.07;33.10;;;;;;;3.72;75.34;100230.73;2123974;82;31050;-62
2021/04/20 03:05:02;;;;;;;;;;;;;;;3.76;75.29;100233.70;2121569;84;33620;-63
2021/04/20 03:08:06;;;;;;;58.00;31.40;;;;;;;3.77;75.24;100228.39;2120329;82;29233;-64
2021/04/20 03:11:17;;;;;;;46.63;29.42;;;;;;;3.78;75.22;100227.92;2146824;82;27862;-62
2021/04/20 03:14:19;;;;;;;46.80;28.70;;;;;;;3.77;75.20;100226.17;2148614;82;30328;-64
2021/04/20 03:17:22;;;;;;;43.83;28.20;;;;;;;3.80;75.28;100238.03;2120351;83;31756;-65
2021/04/20 03:20:24;;;;;;;42.20;26.85;;;;;;;3.84;75.27;100230.87;2121702;82;34074;-63
2021/04/20 03:23:31;;;;;;;45.83;29.37;;;;;;;3.89;75.40;100227.67;2120774;82;29159;-62
2021/04/20 03:26:39;;;;;;;48.60;29.52;;;;;;;3.93;75.36;100230.21;2119112;84;27697;-63
2021/04/20 03:29:41;;;;;;;46.83;28.55;;;;;;;4.00;75.48;100226.96;2131570;82;28820;-63
2021/04/20 03:33:04;;;;;;;47.25;29.77;;;;;;;4.06;75.57;100228.59;2121820;83;31153;-63
2021/04/20 03:36:11;;;;;;;56.70;31.68;;;;;;;4.12;75.61;100226.27;2121718;83;33133;-63
2021/04/20 03:39:17;;;;;;;46.68;29.98;;;;;;;4.17;75.74;100222.59;2096159;83;29171;-63
2021/04/20 03:42:23;;;;;;;44.08;26.93;;;;;;;4.23;75.79;100225.08;2120592;83;27659;-62
2021/04/20 03:45:30;;;;;;;39.33;24.45;;;;;;;4.31;75.80;100222.70;2150466;82;29007;-64
2021/04/20 03:48:39;;;;;;;42.20;25.57;;;;;;;4.37;75.81;100223.88;2112093;83;31131;-63
2021/04/20 03:51:44;;;;;;;61.88;26.37;;;;;;;4.46;75.88;100218.80;2104336;84;34036;-64
2021/04/20 03:54:48;;;;;;;38.73;25.60;;;;;;;4.52;75.83;100227.47;2104795;84;29370;-64
2021/04/20 03:57:50;;;;;;;90.30;24.18;;;;;;;4.61;75.96;100229.45;2105063;84;27598;-63
2021/04/20 04:00:55;;;;;;;47.40;22.58;;;;;;;4.65;75.79;100236.42;2105155;84;28626;-64
2021/04/20 04:03:58;;;;;;;29.35;21.37;;;;;;;4.68;75.64;100239.00;2114126;83;31191;-64
2021/04/20 04:07:02;;;;;;;26.00;19.23;;;;;;;4.70;75.61;100235.39;2116600;83;33104;-64
2021/04/20 04:10:05;;;;;;;36.60;19.73;;;;;;;4.75;75.58;100232.61;2104692;84;29351;-63
2021/04/20 04:13:09;;;;;;;36.73;22.37;;;;;;;4.80;75.49;100237.81;2094069;84;27742;-62
2021/04/20 04:16:13;;;;;;;38.55;21.93;;;;;;;4.82;75.59;100240.83;2064809;86;28849;-63
2021/04/20 04:19:18;;;;;;;31.90;20.35;;;;;;;4.89;75.59;100237.99;2071463;85;32133;-62
2021/04/20 04:22:25;;;;;;;51.28;21.65;;;;;;;4.96;75.60;100244.89;2070822;85;33164;-62
2021/04/20 04:25:33;;;;;;;61.08;23.87;;;;;;;5.01;75.55;100234.55;2070269;85;29235;-63
2021/04/20 04:28:38;;;;;;;35.92;22.70;;;;;;;5.06;75.40;100233.56;2071609;85;27679;-62
2021/04/20 04:31:44;;;;;;;34.08;20.60;;;;;;;5.13;75.43;100250.61;2071621;85;28835;-62
2021/04/20 04:34:49;;;;;;;35.10;18.52;;;;;;;5.13;75.43;100250.61;2071622;85;32094;-62
2021/04/20 04:37:51;;;;;;;35.10;18.70;;;;;;;5.20;75.20;100239.83;2071604;85;33502;-62
2021/04/20 04:40:53;;;;;;;51.42;19.02;;;;;;;5.24;75.13;100238.36;2071487;85;29129;-63
2021/04/20 04:43:55;;;;;;;52.90;19.90;;;;;;;5.32;75.08;100244.77;2071536;85;27639;-62
2021/04/20 04:46:58;;;;;;;32.65;19.37;;;;;;;5.38;75.17;100249.03;2071468;85;28828;-62
2021/04/20 04:50:03;;;;;;;32.15;18.48;;;;;;;5.48;75.23;100251.38;2066122;85;31215;-62
2021/04/20 04:53:07;;;;;;;26.80;17.27;;;;;;;5.58;75.31;100250.66;2085273;85;33113;-62
2021/04/20 04:56:09;;;;;;;25.82;14.93;;;;;;;5.70;75.23;100256.52;2108303;84;30115;-62
2021/04/20 05:02:32;;;;;;;27.40;14.03;;;;;;;5.99;75.00;100248.97;2213495;78;27712;-63
2021/04/20 05:05:39;;;;;;;37.00;14.87;;;;;;;6.04;75.02;100258.16;2190516;79;27655;-62
2021/04/20 05:08:42;;;;;;;51.20;18.40;;;;;;;6.20;75.15;100255.90;2193104;79;28143;-63
2021/04/20 05:11:45;;;;;;;64.85;16.87;;;;;;;6.36;75.14;100257.58;2225474;79;31147;-63
2021/04/20 05:14:48;;;;;;;51.45;17.12;;;;;;;6.52;75.13;100252.63;2228440;79;32275;-64
2021/04/20 05:17:50;;;;;;;31.62;14.23;;;;;;;6.66;75.16;100252.14;2196679;79;29272;-62
2021/04/20 05:20:53;;;;;;;21.90;12.95;;;;;;;6.80;74.83;100257.00;2196363;79;27722;-62
2021/04/20 05:23:55;;;;;;;24.23;16.60;;;;;;;6.89;74.71;100248.67;2228643;79;29354;-62
2021/04/20 05:26:57;;;;;;;24.77;13.98;;;;;;;7.03;74.83;100252.20;2203499;79;31595;-64
2021/04/20 05:29:59;;;;;;;38.28;16.10;;;;;;;7.13;74.57;100250.92;2195355;79;33228;-63
2021/04/20 05:33:03;;;;;;;27.77;17.98;;;;;;;7.25;74.38;100250.95;2213409;79;31181;-64
2021/04/20 05:36:08;;;;;;;25.55;18.12;;;;;;;7.33;74.41;100249.33;2216222;79;27995;-65
2021/04/20 05:39:11;;;;;;;38.17;18.82;;;;;;;7.50;74.71;100257.16;2222701;79;28767;-64
2021/04/20 05:42:15;;;;;;;22.62;15.35;;;;;;;7.66;74.69;100260.13;2227683;79;31147;-63
2021/04/20 05:45:17;;;;;;;19.60;14.87;;;;;;;7.77;74.39;100250.39;2225613;79;33234;-64
2021/04/20 05:48:20;;;;;;;24.87;14.43;;;;;;;7.88;74.31;100253.50;2188605;81;29123;-63
2021/04/20 05:51:24;;;;;;;21.45;14.50;;;;;;;7.99;74.24;100245.92;2199467;79;27616;-64
2021/04/20 05:54:26;;;;;;;30.57;15.68;;;;;;;8.14;74.33;100248.46;2220055;79;28818;-72
2021/04/20 05:57:28;;;;;;;27.37;15.88;;;;;;;8.30;74.21;100246.02;2219428;79;31159;-65
2021/04/20 06:00:30;;;;;;;26.07;16.75;;;;;;;8.48;74.34;100251.56;2227766;79;33045;-63
2021/04/20 06:03:35;;;;;;;26.07;17.20;;;;;;;8.62;74.25;100248.31;2218126;80;29359;-63
2021/04/20 06:06:40;;;;;;;20.97;16.32;;;;;;;8.77;74.36;100246.80;2218100;78;28159;-62
2021/04/20 06:09:44;;;;;;;;;;;;;;;8.94;74.19;100246.06;2206325;80;28291;-63
2021/04/20 06:12:48;;;;;;;20.52;16.00;;;;;;;9.14;74.06;100249.66;2177908;81;32548;-62
2021/04/20 06:15:51;;;;;;;24.50;17.65;;;;;;;9.31;73.91;100244.43;2177134;81;33193;-73
2021/04/20 06:18:53;;;;;;;24.30;17.05;;;;;;;9.48;73.74;100249.48;2181083;80;28863;-71
2021/04/20 06:21:56;;;;;;;22.95;17.95;;;;;;;9.71;73.89;100242.56;2217559;80;27747;-73
2021/04/20 06:24:58;;;;;;;34.78;19.82;;;;;;;9.91;73.51;100238.57;2217456;80;29767;-76
2021/04/20 06:28:01;;;;;;;27.98;18.00;;;;;;;10.12;73.22;100243.34;2180353;80;31198;-73
2021/04/20 06:31:03;;;;;;;39.88;18.62;;;;;;;10.24;72.82;100245.41;2198462;80;33578;-68
2021/04/20 06:34:06;;;;;;;24.63;18.62;;;;;;;10.39;72.88;100245.62;2200217;80;28959;-62
2021/04/20 06:37:09;;;;;;;41.00;28.47;;;;;;;10.53;72.76;100245.80;2178850;80;28242;-62
2021/04/20 06:40:32;;;;;;;30.02;21.60;;;;;;;10.72;72.51;100247.55;2178442;81;28814;-63
2021/04/20 06:44:34;;;;;;;21.90;16.97;;;;;;;10.83;72.50;100249.23;2178507;81;31192;-63
2021/04/20 06:48:01;;;;;;;31.45;19.52;;;;;;;10.92;72.06;100254.58;2178456;80;34249;-63
2021/04/20 06:51:11;;;;;;;26.40;21.30;;;;;;;11.07;72.14;100254.23;2178130;81;28813;-63
2021/04/20 06:54:38;;;;;;;29.60;21.75;;;;;;;11.25;72.00;100253.27;2177977;81;27699;-63
2021/04/20 06:57:51;;;;;;;33.75;21.87;;;;;;;11.48;71.91;100255.20;2177312;81;29255;-63
2021/04/20 07:00:57;;;;;;;28.83;22.10;;;;;;;11.67;70.99;100255.50;2176348;81;31915;-62
2021/04/20 07:04:26;;;;;;;32.55;23.12;;;;;;;11.75;71.34;100247.91;2170323;81;33114;-63
2021/04/20 07:07:53;;;;;;;36.85;25.12;;;;;;;11.90;71.18;100248.00;2171205;82;28870;-63
2021/04/20 07:10:56;;;;;;;31.50;24.10;;;;;;;12.13;71.14;100250.30;2171110;82;27727;-63
2021/04/20 07:13:59;;;;;;;31.85;22.58;;;;;;;12.42;71.02;100243.72;2171154;81;28815;-63
2021/04/20 07:17:28;;;;;;;32.33;23.55;;;;;;;12.75;71.15;100247.17;2192077;80;31148;-62
2021/04/20 07:21:11;;;;;;;32.30;24.15;;;;;;;13.02;70.12;100243.30;2199695;80;34043;-62
2021/04/20 07:24:22;;;;;;;30.20;24.23;;;;;;;13.07;69.29;100247.08;2200786;80;29406;-62
2021/04/20 07:27:39;;;;;;;33.33;24.65;;;;;;;13.45;69.99;100238.97;2201014;80;27633;-62
2021/04/20 07:31:07;;;;;;;33.63;26.75;;;;;;;13.81;69.75;100237.09;2200319;80;30146;-62
2021/04/20 07:34:29;;;;;;;37.35;26.07;;;;;;;14.07;69.60;100232.33;2200350;80;31140;-62
2021/04/20 07:37:53;;;;;;;32.83;24.98;;;;;;;14.38;68.99;100233.87;2200203;80;34243;-62
2021/04/20 07:41:26;;;;;;;33.50;25.08;;;;;;;14.43;68.14;100237.11;2186170;80;28474;-62
2021/04/20 07:44:53;;;;;;;31.12;23.35;;;;;;;14.33;67.21;100237.81;2176836;81;27755;-62
2021/04/20 07:48:22;;;;;;;37.42;27.05;;;;;;;14.26;67.24;100236.02;2178374;81;30164;-63
2021/04/20 07:51:51;;;;;;;34.95;28.30;;;;;;;14.31;67.31;100235.73;2175093;81;32561;-63
2021/04/20 07:55:16;;;;;;;32.78;26.42;;;;;;;14.46;67.35;100232.48;2178069;81;33309;-63
2021/04/20 07:58:21;;;;;;;41.13;31.17;;;;;;;14.70;67.00;100230.87;2124915;83;29290;-63
2021/04/20 08:01:38;;;;;;;34.88;27.52;;;;;;;14.99;67.16;100230.69;2149489;80;27737;-62
2021/04/20 08:05:21;;;;;;;33.70;25.97;;;;;;;15.39;66.51;100223.47;2342184;76;32602;-63
2021/04/20 08:08:56;;;;;;;36.30;25.88;;;;;;;15.48;66.02;100226.84;2305412;77;27853;-64
2021/04/20 08:12:07;;;;;;;32.93;26.65;;;;;;;15.56;65.38;100227.14;2306679;77;32853;-63
2021/04/20 08:15:18;;;;;;;33.30;24.85;;;;;;;15.97;65.12;100230.54;2304996;77;32119;-62
2021/04/20 08:18:31;;;;;;;29.12;24.63;;;;;;;16.33;63.94;100223.88;2306621;77;33107;-63
2021/04/20 08:21:37;;;;;;;33.28;27.32;;;;;;;16.53;64.01;100223.25;2306576;77;28540;-65
2021/04/20 08:25:03;;;;;;;34.35;26.62;;;;;;;16.93;63.65;100222.48;2306645;77;27622;-62
2021/04/20 08:28:54;;;;;;;33.33;25.45;;;;;;;17.22;63.18;100224.30;2306613;77;29043;-63
2021/04/20 08:32:02;;;;;;;29.82;24.75;;;;;;;17.48;62.92;100224.58;2306443;77;31083;-64
2021/04/20 08:35:22;;;;;;;26.75;23.67;;;;;;;17.73;62.19;100227.52;2304713;77;33106;-63
2021/04/20 08:38:41;;;;;;;29.55;24.00;;;;;;;17.98;61.38;100234.55;2233831;78;29788;-64
2021/04/20 08:42:07;;;;;;;31.33;25.82;;;;;;;18.30;61.13;100234.20;2264698;78;27845;-64
2021/04/20 08:45:21;;;;;;;;;;;;;;;18.49;60.24;100228.12;2266425;78;28804;-63
2021/04/20 08:49:02;;;;;;;34.67;24.07;;;;;;;18.59;59.91;100228.20;2264429;78;31318;-63
2021/04/20 08:52:51;;;;;;;31.73;25.10;;;;;;;18.73;59.56;100221.09;2201277;80;33865;-64
2021/04/20 08:56:29;;;;;;;26.90;22.00;;;;;;;18.79;59.09;100221.91;2201198;80;27732;-64
2021/04/20 09:00:02;;;;;;;25.75;21.40;;;;;;;18.76;58.96;100210.47;2201385;80;27701;-65
2021/04/20 09:03:10;;;;;;;28.90;24.15;;;;;;;18.97;58.72;100216.80;2202627;80;29232;-64
2021/04/20 09:06:41;;;;;;;27.87;22.45;;;;;;;19.13;58.42;100210.88;2207683;80;31142;-64
2021/04/20 09:09:54;;;;;;;26.23;21.65;;;;;;;18.96;57.45;100207.41;2199680;77;27775;-64
2021/04/20 09:13:01;;;;;;;26.45;21.20;;;;;;;18.91;57.68;100213.21;2160254;82;27743;-64
2021/04/20 09:16:09;;;;;;;24.67;20.88;;;;;;;18.94;57.99;100214.34;2164901;82;28827;-64
2021/04/20 09:19:22;;;;;;;26.33;22.70;;;;;;;19.05;57.38;100203.03;2165232;82;32453;-63
2021/04/20 09:22:53;;;;;;;24.50;21.23;;;;;;;19.10;57.26;100208.45;2164625;82;34386;-64
2021/04/20 09:26:29;;;;;;;24.20;21.68;;;;;;;19.15;57.05;100201.26;2165634;82;28539;-64
2021/04/20 09:29:40;;;;;;;24.12;20.75;;;;;;;19.19;57.25;100199.13;2135267;81;27631;-64
2021/04/20 09:32:48;;;;;;;26.57;21.48;;;;;;;19.25;56.74;100198.59;2139612;82;28971;-64
2021/04/20 09:36:00;;;;;;;25.55;20.40;;;;;;;19.30;56.36;100189.52;2252278;77;27756;-63
2021/04/20 09:39:05;;;;;;;26.50;20.05;;;;;;;19.33;56.78;100196.56;2212776;80;27624;-63
2021/04/20 09:42:08;;;;;;;;;;;;;;;19.37;56.77;100198.86;2220284;80;29710;-63
2021/04/20 09:45:32;;;;;;;25.97;20.30;;;;;;;19.47;56.42;100194.83;2217579;80;31196;-63
2021/04/20 09:48:49;;;;;;;23.80;19.90;;;;;;;19.46;55.81;100188.16;2217530;80;33123;-63
2021/04/20 09:51:55;;;;;;;21.62;19.17;;;;;;;19.36;56.04;100187.63;2217448;80;28548;-64
2021/04/20 09:55:04;;;;;;;23.92;19.50;;;;;;;19.16;55.45;100189.88;2217621;80;27768;-64
2021/04/20 09:58:10;;;;;;;23.85;19.30;;;;;;;18.97;55.75;100185.58;2217712;80;28876;-64
2021/04/20 10:01:49;;;;;;;25.30;18.90;;;;;;;18.76;55.33;100180.13;2217450;80;31565;-64
2021/04/20 10:05:17;;;;;;;22.77;19.35;;;;;;;18.54;55.52;100179.73;2216392;80;34032;-63
2021/04/20 10:08:35;;;;;;;24.92;19.85;;;;;;;18.34;55.90;100178.24;2217543;80;28964;-64
2021/04/20 10:12:06;;;;;;;25.15;19.40;;;;;;;18.19;55.50;100171.41;2217368;80;27811;-64
2021/04/20 10:15:15;;;;;;;24.67;17.10;;;;;;;18.05;55.89;100167.97;2217257;80;29672;-64
2021/04/20 10:18:47;;;;;;;18.80;16.10;;;;;;;18.07;56.00;100164.64;2217575;80;31140;-64
2021/04/20 10:22:10;;;;;;;19.92;14.78;;;;;;;18.05;55.41;100159.84;2193729;80;33196;-65
2021/04/20 10:29:21;;;;;;;20.43;12.45;;;;;;;18.36;55.08;100150.50;2248641;78;27606;-64
2021/04/20 10:32:31;;;;;;;14.83;12.70;;;;;;;18.43;53.99;100157.62;2227875;79;27679;-64
2021/04/20 10:35:46;;;;;;;17.40;12.20;;;;;;;18.70;53.58;100152.16;2250939;77;27916;-62
2021/04/20 10:38:48;;;;;;;16.05;12.40;;;;;;;18.81;53.07;100150.72;2212864;80;27638;-63
2021/04/20 10:41:53;;;;;;;13.58;11.03;;;;;;;19.04;53.39;100145.17;2166879;80;28806;-65
2021/04/20 10:44:56;;;;;;;15.60;11.95;;;;;;;19.27;53.09;100139.57;2164825;82;31136;-64
2021/04/20 10:48:00;;;;;;;14.43;11.28;;;;;;;19.55;53.15;100141.16;2165593;82;34057;-64
2021/04/20 10:51:02;;;;;;;13.05;9.93;;;;;;;19.79;52.45;100137.19;2165369;82;28543;-65
2021/04/20 10:54:08;;;;;;;13.43;9.28;;;;;;;20.00;51.66;100130.34;2165431;82;27765;-65
2021/04/20 10:57:12;;;;;;;12.90;9.03;;;;;;;20.15;50.82;100121.23;2165878;80;28807;-65
2021/04/20 11:00:19;;;;;;;10.48;9.15;;;;;;;20.24;49.55;100118.16;2216642;80;31457;-65
2021/04/20 11:03:34;;;;;;;10.98;8.98;;;;;;;20.32;48.95;100112.88;2217357;80;33040;-65
2021/04/20 11:07:14;;;;;;;16.30;9.93;;;;;;;20.42;49.53;100115.08;2217380;80;28890;-65
2021/04/20 11:10:17;;;;;;;14.47;10.72;;;;;;;20.46;48.18;100112.42;2216923;80;27689;-64
2021/04/20 11:13:37;;;;;;;12.40;10.75;;;;;;;20.53;49.61;100105.02;2217380;80;28858;-64
2021/04/20 11:16:43;;;;;;;16.17;11.10;;;;;;;20.52;48.60;100100.61;2216878;80;31640;-63
2021/04/20 11:19:48;;;;;;;13.62;10.45;;;;;;;20.43;48.24;100109.15;2216744;80;35440;-64
2021/04/20 11:23:12;;;;;;;10.40;9.28;;;;;;;20.33;48.28;100096.39;2217432;80;28851;-64
2021/04/20 11:26:15;;;;;;;11.78;9.28;;;;;;;20.23;48.14;100098.77;2217583;80;27638;-64
2021/04/20 11:29:32;;;;;;;11.05;8.55;;;;;;;20.12;47.73;100093.84;2217357;80;29604;-64
2021/04/20 11:32:37;;;;;;;16.67;8.88;;;;;;;20.02;46.94;100093.83;2215786;80;30265;-64
2021/04/20 11:35:46;;;;;;;12.33;9.15;;;;;;;19.92;46.74;100086.19;2217292;78;35145;-64
2021/04/20 11:38:58;;;;;;;11.28;7.92;;;;;;;19.92;46.81;100084.83;2187036;80;28882;-64
2021/04/20 11:42:16;;;;;;;13.32;9.73;;;;;;;19.97;46.32;100083.03;2216521;80;27768;-63
2021/04/20 11:45:21;;;;;;;12.50;8.80;;;;;;;20.00;46.17;100082.75;2216403;80;28812;-63
2021/04/20 11:48:34;;;;;;;12.73;8.20;;;;;;;20.03;45.11;100081.08;2186497;80;31140;-63
2021/04/20 11:51:39;;;;;;;10.68;9.15;;;;;;;20.03;45.66;100081.08;2214327;80;33123;-65
2021/04/20 11:54:42;;;;;;;14.30;10.25;;;;;;;20.02;45.51;100084.84;2216563;80;30089;-64
2021/04/20 11:57:45;;;;;;;11.28;9.95;;;;;;;20.03;45.59;100084.68;2181115;80;27655;-64
2021/04/20 12:00:51;;;;;;;14.73;9.50;;;;;;;20.08;45.21;100091.55;2178129;80;28757;-64
2021/04/20 12:04:02;;;;;;;12.15;8.30;;;;;;;20.15;45.49;100081.80;2177548;81;31125;-64
2021/04/20 12:07:05;;;;;;;12.07;8.25;;;;;;;20.31;45.55;100083.44;2177431;81;33922;-64
2021/04/20 12:10:15;;;;;;;10.50;8.17;;;;;;;20.52;45.57;100081.05;2178087;81;28845;-64
2021/04/20 12:13:25;;;;;;;12.88;9.10;;;;;;;20.56;45.27;100073.44;2177935;81;27857;-64
2021/04/20 12:16:34;;;;;;;9.33;7.03;;;;;;;20.67;45.16;100073.77;2177841;81;29549;-65
2021/04/20 12:19:37;;;;;;;6.80;5.42;;;;;;;20.71;43.62;100065.67;2177933;81;32297;-64
2021/04/20 12:22:40;;;;;;;7.35;5.33;;;;;;;20.57;42.27;100071.08;2178105;81;33322;-64
2021/04/20 12:25:42;;;;;;;9.35;6.45;;;;;;;20.32;41.74;100072.91;2178061;81;28924;-64
2021/04/20 12:28:55;;;;;;;5.67;4.60;;;;;;;20.02;42.03;100068.52;2148921;81;27726;-64
2021/04/20 12:31:57;;;;;;;6.97;5.47;;;;;;;19.68;39.53;100075.69;2180045;80;28933;-60
2021/04/20 12:35:01;;;;;;;7.15;4.72;;;;;;;19.15;40.14;100095.83;2217566;80;31547;-63
2021/04/20 12:38:05;;;;;;;7.70;6.12;;;;;;;18.56;40.45;100100.94;2224125;80;33330;-64
2021/04/20 12:41:08;;;;;;;9.45;6.28;;;;;;;18.02;41.84;100110.45;2223859;80;28920;-77
2021/04/20 12:44:13;;;;;;;10.60;7.47;;;;;;;17.52;43.37;100110.95;2190749;80;27752;-63
2021/04/20 12:47:17;;;;;;;27.82;8.75;;;;;;;16.84;44.47;100123.48;2157192;80;29762;-63
2021/04/20 12:50:22;;;;;;;58.43;10.00;;;;;;;15.42;62.47;100137.72;2185230;81;31163;-61
2021/04/20 12:53:27;;;;;;;8.53;5.67;;;;;;;13.98;65.02;100130.10;2184564;80;33138;-62
2021/04/20 12:56:42;;;;;;;9.13;5.65;;;;;;;13.07;65.38;100126.06;2133915;83;29766;-61
2021/04/20 12:59:53;;;;;;;10.18;8.88;;;;;;;12.36;65.64;100123.17;2142010;82;27756;-61
2021/04/20 13:02:58;;;;;;;11.33;8.90;;;;;;;11.81;66.82;100130.83;2138708;82;28834;-61
2021/04/20 13:06:09;;;;;;;15.05;10.75;;;;;;;11.50;67.70;100139.75;2162230;82;31154;-61
2021/04/20 13:09:12;;;;;;;14.90;10.30;;;;;;;11.37;68.96;100143.58;2162050;82;33099;-61
2021/04/20 13:12:16;;;;;;;11.68;8.93;;;;;;;11.32;69.62;100139.81;2161972;82;28965;-62
2021/04/20 13:15:21;;;;;;;13.70;9.93;;;;;;;11.29;69.95;100135.96;2162200;82;27719;-63
2021/04/20 13:18:27;;;;;;;14.95;10.63;;;;;;;11.33;70.45;100128.14;2140455;82;29856;-62
2021/04/20 13:21:31;;;;;;;16.37;12.23;;;;;;;11.38;70.74;100118.03;2147423;82;32162;-62
2021/04/20 13:24:35;;;;;;;15.10;11.75;;;;;;;11.46;71.25;100108.21;2143972;81;32960;-62
2021/04/20 13:27:44;;;;;;;14.25;12.18;;;;;;;11.57;71.52;100097.33;2148936;82;28875;-62
2021/04/20 13:30:50;;;;;;;17.90;15.83;;;;;;;11.63;71.69;100105.89;2132109;82;27739;-62
2021/04/20 13:34:04;;;;;;;18.00;16.10;;;;;;;11.74;72.04;100118.70;2147448;82;28936;-62
2021/04/20 13:37:11;;;;;;;208.38;125.25;;;;;;;11.81;71.93;100129.48;2157613;80;32003;-61
2021/04/20 13:40:17;;;;;;;20.08;14.65;;;;;;;11.90;71.85;100132.12;2144912;82;33121;-61
2021/04/20 13:43:20;;;;;;;20.65;18.52;;;;;;;11.96;71.31;100128.20;2170003;81;29013;-61
2021/04/20 13:46:23;;;;;;;15.35;12.98;;;;;;;12.03;71.20;100134.11;2108378;84;27720;-62
2021/04/20 13:49:26;;;;;;;15.55;11.18;;;;;;;12.12;71.17;100129.06;2146739;82;29738;-62
2021/04/20 13:52:32;;;;;;;8.88;7.97;;;;;;;12.28;71.15;100123.63;2122742;82;31143;-61
2021/04/20 13:55:36;;;;;;;8.33;6.97;;;;;;;12.46;70.99;100112.73;2158052;82;33123;-62
2021/04/20 13:58:53;;;;;;;7.78;6.97;;;;;;;12.63;71.08;100103.66;2158403;82;28914;-62
2021/04/20 14:01:56;;;;;;;12.37;8.20;;;;;;;12.82;70.95;100099.34;2128694;82;28185;-62
2021/04/20 14:04:58;;;;;;;13.62;9.18;;;;;;;13.04;70.80;100085.91;2120876;83;29767;-62
2021/04/20 14:08:04;;;;;;;16.67;10.48;;;;;;;13.18;69.96;100083.66;2121519;83;32129;-62
2021/04/20 14:11:06;;;;;;;11.05;9.63;;;;;;;13.32;69.90;100093.05;2121549;82;33074;-62
2021/04/20 14:14:10;;;;;;;12.25;9.95;;;;;;;13.48;70.09;100078.16;2123886;82;29782;-61
2021/04/20 14:17:15;;;;;;;11.50;8.45;;;;;;;13.58;68.97;100075.73;2128084;82;27694;-63
2021/04/20 14:20:21;;;;;;;11.57;8.65;;;;;;;13.65;67.42;100075.69;2151248;82;30201;-62
2021/04/20 14:23:29;;;;;;;9.30;8.08;;;;;;;13.73;68.05;100067.13;2158304;82;31197;-62
2021/04/20 14:26:29;;;;;;;11.35;8.75;;;;;;;13.85;67.86;100063.23;2156725;82;34579;-62
2021/04/20 14:29:32;;;;;;;18.77;11.00;;;;;;;13.95;67.62;100062.50;2131135;82;31103;-62
2021/04/20 14:32:38;;;;;;;9.90;7.50;;;;;;;14.11;67.56;100060.96;2121765;82;28069;-60
2021/04/20 14:35:41;;;;;;;;;;;;;;;14.30;66.72;100053.46;2119421;82;28568;-63